CheckWX is a tool to help pilots better visualize weather data.  It is not intended as a substitute for an official pre-flight weather briefing.

19:08:32 UTC

KFLP METAR
Marion County Regional Airport
Flippin, Arkansas, USA
Current

13 mins ago

KFLP 121856Z AUTO 33007KT 10SM CLR M02/M11 A3057 RMK AO2 SLP361 T10171111 FZRANO
Observed
Nov-12 @ 18:56 UTC
Wind
  • 330° at 7 KTS
Visibility
10 SM
Flight Rules
VFR
Cloud Levels
  • Clear skies
Temperature
-2°C / 28°F
Dewpoint
-11°C / 12°F
Humidity
51%
Altimeter
30.57" Hg
Pressure
1035.22 hPa
Previous

1 hour ago

KFLP 121756Z AUTO 34007KT 10SM CLR M03/M11 A3060 RMK AO2 SLP371 P0001 60002 T10281111 11022 21089 58018 FZRANO
Observed
Nov-12 @ 17:56 UTC
Wind
  • 340° at 7 KTS
Visibility
10 SM
Flight Rules
VFR
Cloud Levels
  • Clear skies
Temperature
-3°C / 27°F
Dewpoint
-11°C / 12°F
Humidity
54%
Altimeter
30.6" Hg
Pressure
1036.22 hPa
Current Rain
0.01"
Previous

2 hours ago

KFLP 121656Z AUTO VRB05KT 10SM CLR M04/M12 A3064 RMK AO2 SLP385 P0001 T10391117 FZRANO
Observed
Nov-12 @ 16:56 UTC
Wind
  • Variable at 5 KTS
Visibility
10 SM
Flight Rules
VFR
Cloud Levels
  • Clear skies
Temperature
-4°C / 25°F
Dewpoint
-12°C / 10°F
Humidity
54%
Altimeter
30.64" Hg
Pressure
1037.62 hPa
Current Rain
0.01"